sensor_id;sensor_type;location;lat;lon;timestamp;temperature;humidity
12889;DHT22;56848;49.896;11.424;2022-07-06T04:00:27;13.00;99.90
12889;DHT22;56848;49.896;11.424;2022-07-06T04:02:52;12.80;99.90
12889;DHT22;56848;49.896;11.424;2022-07-06T04:05:18;12.70;99.90
12889;DHT22;56848;49.896;11.424;2022-07-06T04:07:47;12.70;99.90
12889;DHT22;56848;49.896;11.424;2022-07-06T04:10:14;12.60;99.90
12889;DHT22;56848;49.896;11.424;2022-07-06T04:12:41;12.60;99.90
12889;DHT22;56848;49.896;11.424;2022-07-06T04:15:07;12.50;99.90
12889;DHT22;56848;49.896;11.424;2022-07-06T04:17:33;12.50;99.90
12889;DHT22;56848;49.896;11.424;2022-07-06T04:20:17;12.50;99.90
12889;DHT22;56848;49.896;11.424;2022-07-06T04:22:43;12.70;99.90
12889;DHT22;56848;49.896;11.424;2022-07-06T04:25:09;12.80;99.90
12889;DHT22;56848;49.896;11.424;2022-07-06T04:27:34;12.90;99.90
12889;DHT22;56848;49.896;11.424;2022-07-06T04:30:00;13.00;99.90
12889;DHT22;56848;49.896;11.424;2022-07-06T04:32:26;13.10;99.90
12889;DHT22;56848;49.896;11.424;2022-07-06T04:34:52;13.30;99.90
12889;DHT22;56848;49.896;11.424;2022-07-06T04:37:17;13.20;99.90
12889;DHT22;56848;49.896;11.424;2022-07-06T04:39:43;13.30;99.90
12889;DHT22;56848;49.896;11.424;2022-07-06T04:42:09;13.10;99.90
12889;DHT22;56848;49.896;11.424;2022-07-06T04:44:34;13.20;99.90
12889;DHT22;56848;49.896;11.424;2022-07-06T04:47:00;13.20;99.90
12889;DHT22;56848;49.896;11.424;2022-07-06T04:49:25;13.40;99.90
12889;DHT22;56848;49.896;11.424;2022-07-06T04:51:51;13.60;99.90
12889;DHT22;56848;49.896;11.424;2022-07-06T04:54:17;13.60;99.90
12889;DHT22;56848;49.896;11.424;2022-07-06T04:56:42;13.90;99.90
12889;DHT22;56848;49.896;11.424;2022-07-06T04:59:08;14.10;99.90
12889;DHT22;56848;49.896;11.424;2022-07-06T05:01:33;14.30;99.90
12889;DHT22;56848;49.896;11.424;2022-07-06T05:03:59;14.40;99.90
12889;DHT22;56848;49.896;11.424;2022-07-06T05:06:25;14.40;99.90
12889;DHT22;56848;49.896;11.424;2022-07-06T05:08:50;14.60;99.90
12889;DHT22;56848;49.896;11.424;2022-07-06T05:11:16;14.70;99.90
12889;DHT22;56848;49.896;11.424;2022-07-06T05:13:42;14.90;99.90
12889;DHT22;56848;49.896;11.424;2022-07-06T05:16:08;14.90;99.90
12889;DHT22;56848;49.896;11.424;2022-07-06T05:18:34;14.90;99.90
12889;DHT22;56848;49.896;11.424;2022-07-06T05:20:59;14.90;99.90
12889;DHT22;56848;49.896;11.424;2022-07-06T05:23:25;15.00;99.90
12889;DHT22;56848;49.896;11.424;2022-07-06T05:25:51;15.10;99.90
12889;DHT22;56848;49.896;11.424;2022-07-06T05:28:16;15.10;99.90
12889;DHT22;56848;49.896;11.424;2022-07-06T05:30:42;15.30;99.90
12889;DHT22;56848;49.896;11.424;2022-07-06T05:33:07;15.40;99.90
12889;DHT22;56848;49.896;11.424;2022-07-06T05:35:33;15.60;99.90
12889;DHT22;56848;49.896;11.424;2022-07-06T05:37:59;15.50;99.90
12889;DHT22;56848;49.896;11.424;2022-07-06T05:40:24;15.70;99.90
12889;DHT22;56848;49.896;11.424;2022-07-06T05:42:50;15.80;99.90
12889;DHT22;56848;49.896;11.424;2022-07-06T05:45:15;15.90;99.90
12889;DHT22;56848;49.896;11.424;2022-07-06T05:47:41;16.10;99.90
12889;DHT22;56848;49.896;11.424;2022-07-06T05:50:25;16.30;99.90
12889;DHT22;56848;49.896;11.424;2022-07-06T05:52:59;16.40;99.90
12889;DHT22;56848;49.896;11.424;2022-07-06T05:55:25;16.50;99.90
12889;DHT22;56848;49.896;11.424;2022-07-06T05:57:51;16.60;99.90
12889;DHT22;56848;49.896;11.424;2022-07-06T06:00:19;16.80;99.90
12889;DHT22;56848;49.896;11.424;2022-07-06T06:02:46;16.90;99.90
12889;DHT22;56848;49.896;11.424;2022-07-06T06:05:13;17.10;99.90
12889;DHT22;56848;49.896;11.424;2022-07-06T06:07:39;17.30;99.90
12889;DHT22;56848;49.896;11.424;2022-07-06T06:10:07;17.40;99.90
12889;DHT22;56848;49.896;11.424;2022-07-06T06:12:33;17.40;99.90
12889;DHT22;56848;49.896;11.424;2022-07-06T06:14:59;17.30;99.90
12889;DHT22;56848;49.896;11.424;2022-07-06T06:17:25;17.20;99.90
12889;DHT22;56848;49.896;11.424;2022-07-06T06:19:50;17.20;99.90
12889;DHT22;56848;49.896;11.424;2022-07-06T06:22:16;17.30;99.90
12889;DHT22;56848;49.896;11.424;2022-07-06T06:24:41;17.30;99.90
12889;DHT22;56848;49.896;11.424;2022-07-06T06:27:07;17.50;99.90
12889;DHT22;56848;49.896;11.424;2022-07-06T06:29:33;17.30;99.90
12889;DHT22;56848;49.896;11.424;2022-07-06T06:31:58;17.40;99.90
12889;DHT22;56848;49.896;11.424;2022-07-06T06:34:24;17.50;99.90
12889;DHT22;56848;49.896;11.424;2022-07-06T06:36:50;17.60;99.90
12889;DHT22;56848;49.896;11.424;2022-07-06T06:39:16;17.70;99.90
12889;DHT22;56848;49.896;11.424;2022-07-06T06:41:41;17.80;99.90
12889;DHT22;56848;49.896;11.424;2022-07-06T06:44:07;17.90;99.90
12889;DHT22;56848;49.896;11.424;2022-07-06T06:46:33;17.90;99.90
12889;DHT22;56848;49.896;11.424;2022-07-06T06:48:58;18.00;99.90
12889;DHT22;56848;49.896;11.424;2022-07-06T06:51:24;18.10;99.90
12889;DHT22;56848;49.896;11.424;2022-07-06T06:53:49;18.20;99.90
12889;DHT22;56848;49.896;11.424;2022-07-06T06:56:15;18.10;99.90
12889;DHT22;56848;49.896;11.424;2022-07-06T06:58:41;18.20;99.90
12889;DHT22;56848;49.896;11.424;2022-07-06T07:01:06;18.30;99.90
12889;DHT22;56848;49.896;11.424;2022-07-06T07:03:32;18.40;99.90
12889;DHT22;56848;49.896;11.424;2022-07-06T07:05:58;18.60;99.90
12889;DHT22;56848;49.896;11.424;2022-07-06T07:08:23;18.80;99.90
12889;DHT22;56848;49.896;11.424;2022-07-06T07:10:49;18.70;99.90
12889;DHT22;56848;49.896;11.424;2022-07-06T07:13:15;18.80;99.90
12889;DHT22;56848;49.896;11.424;2022-07-06T07:15:40;18.80;99.90
12889;DHT22;56848;49.896;11.424;2022-07-06T07:18:06;18.90;99.90
12889;DHT22;56848;49.896;11.424;2022-07-06T07:20:31;18.60;99.90
12889;DHT22;56848;49.896;11.424;2022-07-06T07:22:59;18.70;99.90
12889;DHT22;56848;49.896;11.424;2022-07-06T07:25:25;18.80;99.90
12889;DHT22;56848;49.896;11.424;2022-07-06T07:27:51;18.80;99.90
12889;DHT22;56848;49.896;11.424;2022-07-06T07:30:17;19.00;99.90
12889;DHT22;56848;49.896;11.424;2022-07-06T07:32:43;19.30;99.90
12889;DHT22;56848;49.896;11.424;2022-07-06T07:35:09;19.40;99.90
12889;DHT22;56848;49.896;11.424;2022-07-06T07:37:35;19.20;99.90
12889;DHT22;56848;49.896;11.424;2022-07-06T07:40:01;19.00;99.90
12889;DHT22;56848;49.896;11.424;2022-07-06T07:42:26;18.90;99.90
12889;DHT22;56848;49.896;11.424;2022-07-06T07:44:52;18.90;99.90
12889;DHT22;56848;49.896;11.424;2022-07-06T07:47:18;19.10;99.90
12889;DHT22;56848;49.896;11.424;2022-07-06T07:49:44;19.10;99.90
12889;DHT22;56848;49.896;11.424;2022-07-06T07:52:09;19.20;99.90
12889;DHT22;56848;49.896;11.424;2022-07-06T07:54:35;19.20;99.90
12889;DHT22;56848;49.896;11.424;2022-07-06T07:57:01;19.20;99.90
12889;DHT22;56848;49.896;11.424;2022-07-06T07:59:27;19.10;99.90
12889;DHT22;56848;49.896;11.424;2022-07-06T08:01:53;19.30;99.90
12889;DHT22;56848;49.896;11.424;2022-07-06T08:04:19;19.60;99.90
12889;DHT22;56848;49.896;11.424;2022-07-06T08:06:45;19.70;99.90
12889;DHT22;56848;49.896;11.424;2022-07-06T08:09:10;19.90;99.90
12889;DHT22;56848;49.896;11.424;2022-07-06T08:11:36;19.90;99.90
12889;DHT22;56848;49.896;11.424;2022-07-06T08:14:02;20.00;99.90
12889;DHT22;56848;49.896;11.424;2022-07-06T08:16:29;19.90;99.90
12889;DHT22;56848;49.896;11.424;2022-07-06T08:18:54;19.90;99.90
12889;DHT22;56848;49.896;11.424;2022-07-06T08:21:20;20.00;99.90
12889;DHT22;56848;49.896;11.424;2022-07-06T08:23:46;20.00;99.90
12889;DHT22;56848;49.896;11.424;2022-07-06T08:26:12;20.20;99.90
12889;DHT22;56848;49.896;11.424;2022-07-06T08:28:38;20.30;99.90
12889;DHT22;56848;49.896;11.424;2022-07-06T08:31:04;20.60;99.90
12889;DHT22;56848;49.896;11.424;2022-07-06T08:33:30;20.80;99.90
12889;DHT22;56848;49.896;11.424;2022-07-06T08:35:55;20.90;99.90
12889;DHT22;56848;49.896;11.424;2022-07-06T08:38:21;20.80;99.90
12889;DHT22;56848;49.896;11.424;2022-07-06T08:40:49;20.80;99.90
12889;DHT22;56848;49.896;11.424;2022-07-06T08:43:15;20.90;99.90
12889;DHT22;56848;49.896;11.424;2022-07-06T08:45:41;20.90;99.90
12889;DHT22;56848;49.896;11.424;2022-07-06T08:48:10;20.60;99.90
12889;DHT22;56848;49.896;11.424;2022-07-06T08:50:36;20.80;99.90
12889;DHT22;56848;49.896;11.424;2022-07-06T08:53:03;20.70;99.90
12889;DHT22;56848;49.896;11.424;2022-07-06T08:55:29;20.60;99.90
12889;DHT22;56848;49.896;11.424;2022-07-06T08:57:56;20.40;99.90
12889;DHT22;56848;49.896;11.424;2022-07-06T09:00:23;20.10;99.90
12889;DHT22;56848;49.896;11.424;2022-07-06T09:02:49;20.30;99.90
12889;DHT22;56848;49.896;11.424;2022-07-06T09:05:17;20.40;99.90
12889;DHT22;56848;49.896;11.424;2022-07-06T09:07:45;20.90;99.90
12889;DHT22;56848;49.896;11.424;2022-07-06T09:10:11;21.30;99.90
12889;DHT22;56848;49.896;11.424;2022-07-06T09:12:37;21.70;99.90
12889;DHT22;56848;49.896;11.424;2022-07-06T09:15:03;22.20;99.90
12889;DHT22;56848;49.896;11.424;2022-07-06T09:17:29;21.70;99.90
12889;DHT22;56848;49.896;11.424;2022-07-06T09:19:56;21.30;99.90
12889;DHT22;56848;49.896;11.424;2022-07-06T09:22:30;20.90;99.90
12889;DHT22;56848;49.896;11.424;2022-07-06T09:25:05;20.70;99.90
12889;DHT22;56848;49.896;11.424;2022-07-06T09:27:31;20.20;99.90
12889;DHT22;56848;49.896;11.424;2022-07-06T09:30:00;20.20;99.90
12889;DHT22;56848;49.896;11.424;2022-07-06T09:32:28;20.30;99.90
12889;DHT22;56848;49.896;11.424;2022-07-06T09:34:54;20.80;99.90
12889;DHT22;56848;49.896;11.424;2022-07-06T09:37:21;21.20;99.90
12889;DHT22;56848;49.896;11.424;2022-07-06T09:39:47;21.40;99.90
12889;DHT22;56848;49.896;11.424;2022-07-06T09:42:13;21.90;99.90
12889;DHT22;56848;49.896;11.424;2022-07-06T09:44:40;22.10;99.90
12889;DHT22;56848;49.896;11.424;2022-07-06T09:47:10;21.80;99.90
12889;DHT22;56848;49.896;11.424;2022-07-06T09:49:37;22.00;99.90
12889;DHT22;56848;49.896;11.424;2022-07-06T09:52:12;22.20;99.90
12889;DHT22;56848;49.896;11.424;2022-07-06T09:54:39;22.40;99.90
12889;DHT22;56848;49.896;11.424;2022-07-06T09:57:05;22.20;99.90
12889;DHT22;56848;49.896;11.424;2022-07-06T09:59:34;22.10;99.90
